<?xml version='1.0' encoding='UTF-8'?>
<gpx version="1.1" creator="https://www.komoot.de" xmlns="http://www.topografix.com/GPX/1/1" xmlns:xsi="http://www.w3.org/2001/XMLSchema-instance" xsi:schemaLocation="http://www.topografix.com/GPX/1/1 http://www.topografix.com/GPX/1/1/gpx.xsd">
  <metadata>
    <name>Edersee Edertalsperre Umrundung</name>
    <author>
      <link href="https://www.komoot.de">
        <text>komoot</text>
        <type>text/html</type>
      </link>
    </author>
  </metadata>
  <trk>
    <name>Edersee Edertalsperre Umrundung</name>
    <trkseg>
      <trkpt lat="51.187703" lon="9.057712">
        <ele>247.801598</ele>
        <time>2024-06-04T20:58:22.949Z</time>
      </trkpt>
      <trkpt lat="51.187687" lon="9.057908">
        <ele>247.801598</ele>
        <time>2024-06-04T20:58:35.524Z</time>
      </trkpt>
      <trkpt lat="51.187272" lon="9.058411">
        <ele>247.801598</ele>
        <time>2024-06-04T20:59:28.129Z</time>
      </trkpt>
      <trkpt lat="51.187359" lon="9.058487">
        <ele>247.801598</ele>
        <time>2024-06-04T20:59:38.364Z</time>
      </trkpt>
      <trkpt lat="51.187292" lon="9.058610">
        <ele>247.801598</ele>
        <time>2024-06-04T20:59:48.857Z</time>
      </trkpt>
      <trkpt lat="51.187090" lon="9.058313">
        <ele>248.007297</ele>
        <time>2024-06-04T21:00:17.063Z</time>
      </trkpt>
      <trkpt lat="51.187043" lon="9.058226">
        <ele>248.074074</ele>
        <time>2024-06-04T21:00:24.488Z</time>
      </trkpt>
      <trkpt lat="51.186870" lon="9.058513">
        <ele>248.305580</ele>
        <time>2024-06-04T21:00:49.779Z</time>
      </trkpt>
      <trkpt lat="51.186729" lon="9.059130">
        <ele>248.687405</ele>
        <time>2024-06-04T21:01:31.287Z</time>
      </trkpt>
      <trkpt lat="51.186684" lon="9.059320">
        <ele>248.805495</ele>
        <time>2024-06-04T21:01:44.457Z</time>
      </trkpt>
      <trkpt lat="51.186465" lon="9.059403">
        <ele>249.014292</ele>
        <time>2024-06-04T21:02:07.542Z</time>
      </trkpt>
      <trkpt lat="51.186193" lon="9.059540">
        <ele>249.278873</ele>
        <time>2024-06-04T21:02:38.629Z</time>
      </trkpt>
      <trkpt lat="51.186126" lon="9.059556">
        <ele>249.341714</ele>
        <time>2024-06-04T21:02:46.012Z</time>
      </trkpt>
      <trkpt lat="51.186090" lon="9.059570">
        <ele>249.376085</ele>
        <time>2024-06-04T21:02:50.463Z</time>
      </trkpt>
      <trkpt lat="51.186056" lon="9.059584">
        <ele>249.408657</ele>
        <time>2024-06-04T21:02:54.598Z</time>
      </trkpt>
      <trkpt lat="51.186016" lon="9.059691">
        <ele>249.504826</ele>
        <time>2024-06-04T21:03:04.971Z</time>
      </trkpt>
      <trkpt lat="51.185829" lon="9.059920">
        <ele>250.191966</ele>
        <time>2024-06-04T21:03:32.923Z</time>
      </trkpt>
      <trkpt lat="51.185713" lon="9.059862">
        <ele>250.546307</ele>
        <time>2024-06-04T21:03:47.522Z</time>
      </trkpt>
      <trkpt lat="51.185636" lon="9.060176">
        <ele>251.162339</ele>
        <time>2024-06-04T21:04:11.176Z</time>
      </trkpt>
      <trkpt lat="51.185461" lon="9.060253">
        <ele>251.691485</ele>
        <time>2024-06-04T21:04:31.532Z</time>
      </trkpt>
      <trkpt lat="51.185436" lon="9.060296">
        <ele>251.798641</ele>
        <time>2024-06-04T21:04:35.616Z</time>
      </trkpt>
      <trkpt lat="51.185327" lon="9.060339">
        <ele>252.125931</ele>
        <time>2024-06-04T21:04:47.035Z</time>
      </trkpt>
      <trkpt lat="51.185243" lon="9.060473">
        <ele>252.472183</ele>
        <time>2024-06-04T21:04:59.141Z</time>
      </trkpt>
      <trkpt lat="51.185238" lon="9.060591">
        <ele>252.688267</ele>
        <time>2024-06-04T21:05:07.859Z</time>
      </trkpt>
      <trkpt lat="51.185403" lon="9.060743">
        <ele>253.243641</ele>
        <time>2024-06-04T21:05:28.423Z</time>
      </trkpt>
      <trkpt lat="51.185505" lon="9.060995">
        <ele>253.791710</ele>
        <time>2024-06-04T21:05:49.224Z</time>
      </trkpt>
      <trkpt lat="51.185598" lon="9.060985">
        <ele>254.063408</ele>
        <time>2024-06-04T21:05:59.416Z</time>
      </trkpt>
      <trkpt lat="51.185676" lon="9.060902">
        <ele>254.336700</ele>
        <time>2024-06-04T21:06:09.475Z</time>
      </trkpt>
      <trkpt lat="51.185779" lon="9.060870">
        <ele>254.642571</ele>
        <time>2024-06-04T21:06:21.032Z</time>
      </trkpt>
      <trkpt lat="51.185887" lon="9.060303">
        <ele>254.578031</ele>
        <time>2024-06-04T21:07:00.555Z</time>
      </trkpt>
      <trkpt lat="51.186188" lon="9.059822">
        <ele>254.412702</ele>
        <time>2024-06-04T21:07:45.039Z</time>
      </trkpt>
      <trkpt lat="51.186729" lon="9.059648">
        <ele>254.198529</ele>
        <time>2024-06-04T21:08:42.763Z</time>
      </trkpt>
      <trkpt lat="51.186886" lon="9.059658">
        <ele>254.137553</ele>
        <time>2024-06-04T21:08:59.818Z</time>
      </trkpt>
      <trkpt lat="51.186899" lon="9.059625">
        <ele>254.128072</ele>
        <time>2024-06-04T21:09:02.549Z</time>
      </trkpt>
      <trkpt lat="51.186961" lon="9.059606">
        <ele>254.103571</ele>
        <time>2024-06-04T21:09:08.967Z</time>
      </trkpt>
      <trkpt lat="51.186947" lon="9.059522">
        <ele>254.082429</ele>
        <time>2024-06-04T21:09:15.222Z</time>
      </trkpt>
      <trkpt lat="51.186934" lon="9.059444">
        <ele>254.062797</ele>
        <time>2024-06-04T21:09:20.552Z</time>
      </trkpt>
      <trkpt lat="51.186623" lon="9.059502">
        <ele>254.446414</ele>
        <time>2024-06-04T21:09:53.081Z</time>
      </trkpt>
      <trkpt lat="51.186620" lon="9.059573">
        <ele>254.548013</ele>
        <time>2024-06-04T21:09:57.691Z</time>
      </trkpt>
      <trkpt lat="51.186377" lon="9.059610">
        <ele>255.104049</ele>
        <time>2024-06-04T21:10:23.260Z</time>
      </trkpt>
      <trkpt lat="51.186277" lon="9.059661">
        <ele>255.343190</ele>
        <time>2024-06-04T21:10:34.426Z</time>
      </trkpt>
      <trkpt lat="51.186188" lon="9.059706">
        <ele>255.555856</ele>
        <time>2024-06-04T21:10:45.054Z</time>
      </trkpt>
      <trkpt lat="51.186009" lon="9.059881">
        <ele>256.034059</ele>
        <time>2024-06-04T21:11:08.760Z</time>
      </trkpt>
      <trkpt lat="51.185556" lon="9.060477">
        <ele>257.371542</ele>
        <time>2024-06-04T21:12:11.747Z</time>
      </trkpt>
      <trkpt lat="51.185529" lon="9.060513">
        <ele>257.451694</ele>
        <time>2024-06-04T21:12:15.506Z</time>
      </trkpt>
      <trkpt lat="51.185417" lon="9.060586">
        <ele>257.727284</ele>
        <time>2024-06-04T21:12:28.769Z</time>
      </trkpt>
      <trkpt lat="51.185238" lon="9.060591">
        <ele>258.228246</ele>
        <time>2024-06-04T21:12:50.165Z</time>
      </trkpt>
      <trkpt lat="51.185403" lon="9.060743">
        <ele>260.404291</ele>
        <time>2024-06-04T21:13:13.439Z</time>
      </trkpt>
      <trkpt lat="51.185505" lon="9.060995">
        <ele>262.551715</ele>
        <time>2024-06-04T21:13:37.527Z</time>
      </trkpt>
      <trkpt lat="51.185339" lon="9.061089">
        <ele>264.563470</ele>
        <time>2024-06-04T21:14:00.621Z</time>
      </trkpt>
      <trkpt lat="51.185189" lon="9.061065">
        <ele>266.285204</ele>
        <time>2024-06-04T21:14:20.754Z</time>
      </trkpt>
      <trkpt lat="51.184989" lon="9.061263">
        <ele>268.973439</ele>
        <time>2024-06-04T21:14:55.051Z</time>
      </trkpt>
      <trkpt lat="51.184812" lon="9.061344">
        <ele>271.076466</ele>
        <time>2024-06-04T21:15:24.093Z</time>
      </trkpt>
      <trkpt lat="51.184712" lon="9.061453">
        <ele>272.459670</ele>
        <time>2024-06-04T21:15:43.230Z</time>
      </trkpt>
      <trkpt lat="51.184528" lon="9.062013">
        <ele>276.985989</ele>
        <time>2024-06-04T21:16:50.712Z</time>
      </trkpt>
      <trkpt lat="51.184516" lon="9.062151">
        <ele>277.983366</ele>
        <time>2024-06-04T21:17:06.340Z</time>
      </trkpt>
      <trkpt lat="51.184366" lon="9.062827">
        <ele>284.606385</ele>
        <time>2024-06-04T21:18:16.140Z</time>
      </trkpt>
      <trkpt lat="51.184200" lon="9.063329">
        <ele>290.025512</ele>
        <time>2024-06-04T21:19:13.472Z</time>
      </trkpt>
      <trkpt lat="51.184053" lon="9.063937">
        <ele>296.247529</ele>
        <time>2024-06-04T21:20:30.169Z</time>
      </trkpt>
      <trkpt lat="51.184031" lon="9.063952">
        <ele>296.611962</ele>
        <time>2024-06-04T21:20:35.806Z</time>
      </trkpt>
      <trkpt lat="51.183995" lon="9.064095">
        <ele>298.083323</ele>
        <time>2024-06-04T21:20:57.701Z</time>
      </trkpt>
      <trkpt lat="51.183742" lon="9.064354">
        <ele>302.662298</ele>
        <time>2024-06-04T21:21:47.006Z</time>
      </trkpt>
      <trkpt lat="51.183604" lon="9.064377">
        <ele>304.775802</ele>
        <time>2024-06-04T21:22:08.489Z</time>
      </trkpt>
      <trkpt lat="51.183559" lon="9.064334">
        <ele>305.574809</ele>
        <time>2024-06-04T21:22:14.218Z</time>
      </trkpt>
      <trkpt lat="51.183605" lon="9.064411">
        <ele>306.205689</ele>
        <time>2024-06-04T21:22:22.549Z</time>
      </trkpt>
      <trkpt lat="51.183716" lon="9.064516">
        <ele>306.767788</ele>
        <time>2024-06-04T21:22:45.042Z</time>
      </trkpt>
      <trkpt lat="51.183713" lon="9.064547">
        <ele>306.853431</ele>
        <time>2024-06-04T21:22:48.963Z</time>
      </trkpt>
      <trkpt lat="51.183603" lon="9.064566">
        <ele>307.335370</ele>
        <time>2024-06-04T21:23:02.368Z</time>
      </trkpt>
      <trkpt lat="51.183477" lon="9.064519">
        <ele>307.899004</ele>
        <time>2024-06-04T21:23:16.726Z</time>
      </trkpt>
      <trkpt lat="51.183452" lon="9.064829">
        <ele>308.752387</ele>
        <time>2024-06-04T21:23:43.496Z</time>
      </trkpt>
      <trkpt lat="51.183370" lon="9.065195">
        <ele>309.813608</ele>
        <time>2024-06-04T21:24:12.331Z</time>
      </trkpt>
      <trkpt lat="51.183334" lon="9.065416">
        <ele>310.437058</ele>
        <time>2024-06-04T21:24:29.452Z</time>
      </trkpt>
      <trkpt lat="51.183284" lon="9.065520">
        <ele>310.794919</ele>
        <time>2024-06-04T21:24:38.191Z</time>
      </trkpt>
      <trkpt lat="51.183126" lon="9.065693">
        <ele>311.629640</ele>
        <time>2024-06-04T21:25:03.661Z</time>
      </trkpt>
      <trkpt lat="51.182998" lon="9.065727">
        <ele>312.194859</ele>
        <time>2024-06-04T21:25:17.819Z</time>
      </trkpt>
      <trkpt lat="51.182857" lon="9.065714">
        <ele>312.810053</ele>
        <time>2024-06-04T21:25:32.049Z</time>
      </trkpt>
      <trkpt lat="51.182701" lon="9.065784">
        <ele>313.515926</ele>
        <time>2024-06-04T21:25:49.480Z</time>
      </trkpt>
      <trkpt lat="51.182571" lon="9.065901">
        <ele>313.461967</ele>
        <time>2024-06-04T21:26:07.794Z</time>
      </trkpt>
      <trkpt lat="51.182392" lon="9.066316">
        <ele>311.377680</ele>
        <time>2024-06-04T21:26:43.186Z</time>
      </trkpt>
      <trkpt lat="51.182311" lon="9.066581">
        <ele>310.157832</ele>
        <time>2024-06-04T21:27:04.592Z</time>
      </trkpt>
      <trkpt lat="51.182196" lon="9.066657">
        <ele>309.336213</ele>
        <time>2024-06-04T21:27:20.334Z</time>
      </trkpt>
      <trkpt lat="51.182107" lon="9.066777">
        <ele>308.567049</ele>
        <time>2024-06-04T21:27:34.892Z</time>
      </trkpt>
      <trkpt lat="51.181979" lon="9.066910">
        <ele>307.558768</ele>
        <time>2024-06-04T21:27:52.894Z</time>
      </trkpt>
      <trkpt lat="51.181893" lon="9.066923">
        <ele>306.988578</ele>
        <time>2024-06-04T21:28:03.621Z</time>
      </trkpt>
      <trkpt lat="51.181600" lon="9.066634">
        <ele>304.714803</ele>
        <time>2024-06-04T21:28:42.314Z</time>
      </trkpt>
      <trkpt lat="51.181204" lon="9.066311">
        <ele>301.821072</ele>
        <time>2024-06-04T21:29:30.253Z</time>
      </trkpt>
      <trkpt lat="51.180993" lon="9.066402">
        <ele>300.635836</ele>
        <time>2024-06-04T21:29:53.277Z</time>
      </trkpt>
      <trkpt lat="51.180860" lon="9.066553">
        <ele>299.750632</ele>
        <time>2024-06-04T21:30:11.611Z</time>
      </trkpt>
      <trkpt lat="51.180851" lon="9.066584">
        <ele>299.634504</ele>
        <time>2024-06-04T21:30:13.922Z</time>
      </trkpt>
      <trkpt lat="51.180771" lon="9.066851">
        <ele>298.628569</ele>
        <time>2024-06-04T21:30:35.155Z</time>
      </trkpt>
      <trkpt lat="51.180328" lon="9.067113">
        <ele>296.066597</ele>
        <time>2024-06-04T21:31:31.673Z</time>
      </trkpt>
      <trkpt lat="51.180253" lon="9.067238">
        <ele>295.478428</ele>
        <time>2024-06-04T21:31:43.857Z</time>
      </trkpt>
      <trkpt lat="51.180134" lon="9.067630">
        <ele>293.997897</ele>
        <time>2024-06-04T21:32:14.485Z</time>
      </trkpt>
      <trkpt lat="51.179994" lon="9.067777">
        <ele>293.089044</ele>
        <time>2024-06-04T21:32:32.179Z</time>
      </trkpt>
      <trkpt lat="51.179703" lon="9.067624">
        <ele>291.696241</ele>
        <time>2024-06-04T21:33:03.300Z</time>
      </trkpt>
      <trkpt lat="51.179588" lon="9.067348">
        <ele>290.932911</ele>
        <time>2024-06-04T21:33:24.275Z</time>
      </trkpt>
      <trkpt lat="51.179364" lon="9.066974">
        <ele>289.741499</ele>
        <time>2024-06-04T21:33:56.858Z</time>
      </trkpt>
      <trkpt lat="51.179190" lon="9.066766">
        <ele>288.942588</ele>
        <time>2024-06-04T21:34:19.190Z</time>
      </trkpt>
      <trkpt lat="51.179060" lon="9.066734">
        <ele>288.459282</ele>
        <time>2024-06-04T21:34:33.459Z</time>
      </trkpt>
      <trkpt lat="51.178888" lon="9.066771">
        <ele>287.821591</ele>
        <time>2024-06-04T21:34:52.476Z</time>
      </trkpt>
      <trkpt lat="51.178308" lon="9.067332">
        <ele>284.915389</ele>
        <time>2024-06-04T21:36:09.982Z</time>
      </trkpt>
      <trkpt lat="51.178134" lon="9.067317">
        <ele>283.454127</ele>
        <time>2024-06-04T21:36:29.861Z</time>
      </trkpt>
      <trkpt lat="51.177903" lon="9.067131">
        <ele>281.284200</ele>
        <time>2024-06-04T21:36:59.072Z</time>
      </trkpt>
      <trkpt lat="51.177812" lon="9.066988">
        <ele>280.212991</ele>
        <time>2024-06-04T21:37:13.314Z</time>
      </trkpt>
      <trkpt lat="51.177261" lon="9.066676">
        <ele>275.309912</ele>
        <time>2024-06-04T21:38:19.439Z</time>
      </trkpt>
      <trkpt lat="51.176987" lon="9.066290">
        <ele>272.244384</ele>
        <time>2024-06-04T21:39:03.339Z</time>
      </trkpt>
      <trkpt lat="51.176602" lon="9.065838">
        <ele>267.674658</ele>
        <time>2024-06-04T21:40:03.558Z</time>
      </trkpt>
      <trkpt lat="51.176347" lon="9.065449">
        <ele>264.004449</ele>
        <time>2024-06-04T21:40:49.047Z</time>
      </trkpt>
      <trkpt lat="51.175829" lon="9.064849">
        <ele>257.345536</ele>
        <time>2024-06-04T21:42:07.102Z</time>
      </trkpt>
      <trkpt lat="51.175477" lon="9.064740">
        <ele>253.615751</ele>
        <time>2024-06-04T21:42:49.342Z</time>
      </trkpt>
      <trkpt lat="51.175318" lon="9.064544">
        <ele>251.808519</ele>
        <time>2024-06-04T21:43:12.153Z</time>
      </trkpt>
      <trkpt lat="51.175078" lon="9.064392">
        <ele>251.395000</ele>
        <time>2024-06-04T21:43:40.139Z</time>
      </trkpt>
      <trkpt lat="51.174905" lon="9.064156">
        <ele>251.030460</ele>
        <time>2024-06-04T21:44:03.684Z</time>
      </trkpt>
      <trkpt lat="51.174859" lon="9.064065">
        <ele>250.913100</ele>
        <time>2024-06-04T21:44:11.535Z</time>
      </trkpt>
      <trkpt lat="51.174826" lon="9.063999">
        <ele>250.828345</ele>
        <time>2024-06-04T21:44:17.291Z</time>
      </trkpt>
      <trkpt lat="51.174749" lon="9.063845">
        <ele>250.630584</ele>
        <time>2024-06-04T21:44:30.006Z</time>
      </trkpt>
      <trkpt lat="51.174418" lon="9.063567">
        <ele>250.031535</ele>
        <time>2024-06-04T21:45:07.729Z</time>
      </trkpt>
      <trkpt lat="51.174065" lon="9.063650">
        <ele>249.460139</ele>
        <time>2024-06-04T21:45:44.577Z</time>
      </trkpt>
      <trkpt lat="51.173950" lon="9.063541">
        <ele>249.245918</ele>
        <time>2024-06-04T21:45:59.640Z</time>
      </trkpt>
      <trkpt lat="51.173692" lon="9.062903">
        <ele>248.782989</ele>
        <time>2024-06-04T21:46:49.141Z</time>
      </trkpt>
      <trkpt lat="51.172929" lon="9.061706">
        <ele>248.103299</ele>
        <time>2024-06-04T21:48:38.472Z</time>
      </trkpt>
      <trkpt lat="51.172627" lon="9.061062">
        <ele>247.675830</ele>
        <time>2024-06-04T21:49:30.861Z</time>
      </trkpt>
      <trkpt lat="51.172365" lon="9.060747">
        <ele>247.056153</ele>
        <time>2024-06-04T21:50:04.579Z</time>
      </trkpt>
      <trkpt lat="51.172328" lon="9.060436">
        <ele>246.681306</ele>
        <time>2024-06-04T21:50:24.679Z</time>
      </trkpt>
      <trkpt lat="51.172142" lon="9.060034">
        <ele>246.089682</ele>
        <time>2024-06-04T21:50:56.706Z</time>
      </trkpt>
      <trkpt lat="51.171886" lon="9.059574">
        <ele>245.361331</ele>
        <time>2024-06-04T21:51:37.029Z</time>
      </trkpt>
      <trkpt lat="51.171344" lon="9.058380">
        <ele>241.987704</ele>
        <time>2024-06-04T21:53:14.681Z</time>
      </trkpt>
      <trkpt lat="51.171170" lon="9.058064">
        <ele>240.506399</ele>
        <time>2024-06-04T21:53:43.288Z</time>
      </trkpt>
      <trkpt lat="51.170667" lon="9.056805">
        <ele>235.248135</ele>
        <time>2024-06-04T21:55:28.842Z</time>
      </trkpt>
      <trkpt lat="51.170121" lon="9.055904">
        <ele>228.929413</ele>
        <time>2024-06-04T21:57:02.401Z</time>
      </trkpt>
      <trkpt lat="51.169742" lon="9.055178">
        <ele>223.791490</ele>
        <time>2024-06-04T21:58:12.325Z</time>
      </trkpt>
      <trkpt lat="51.169409" lon="9.054694">
        <ele>219.883479</ele>
        <time>2024-06-04T21:59:05.098Z</time>
      </trkpt>
      <trkpt lat="51.169365" lon="9.054550">
        <ele>219.012247</ele>
        <time>2024-06-04T21:59:16.882Z</time>
      </trkpt>
      <trkpt lat="51.169394" lon="9.054445">
        <ele>218.535635</ele>
        <time>2024-06-04T21:59:25.460Z</time>
      </trkpt>
      <trkpt lat="51.169711" lon="9.054796">
        <ele>216.612385</ele>
        <time>2024-06-04T22:00:09.733Z</time>
      </trkpt>
      <trkpt lat="51.169773" lon="9.054805">
        <ele>216.302119</ele>
        <time>2024-06-04T22:00:16.563Z</time>
      </trkpt>
      <trkpt lat="51.169854" lon="9.054747">
        <ele>215.859620</ele>
        <time>2024-06-04T22:00:27.043Z</time>
      </trkpt>
      <trkpt lat="51.169894" lon="9.054827">
        <ele>215.539881</ele>
        <time>2024-06-04T22:00:33.756Z</time>
      </trkpt>
      <trkpt lat="51.169952" lon="9.054759">
        <ele>215.181128</ele>
        <time>2024-06-04T22:00:42.310Z</time>
      </trkpt>
      <trkpt lat="51.170750" lon="9.053907">
        <ele>210.395269</ele>
        <time>2024-06-04T22:02:26.444Z</time>
      </trkpt>
      <trkpt lat="51.170849" lon="9.053808">
        <ele>209.812922</ele>
        <time>2024-06-04T22:02:38.555Z</time>
      </trkpt>
      <trkpt lat="51.171007" lon="9.053658">
        <ele>210.068395</ele>
        <time>2024-06-04T22:02:57.819Z</time>
      </trkpt>
      <trkpt lat="51.171195" lon="9.053500">
        <ele>210.428858</ele>
        <time>2024-06-04T22:03:19.551Z</time>
      </trkpt>
      <trkpt lat="51.171257" lon="9.053452">
        <ele>210.545762</ele>
        <time>2024-06-04T22:03:26.562Z</time>
      </trkpt>
      <trkpt lat="51.171397" lon="9.053347">
        <ele>210.808185</ele>
        <time>2024-06-04T22:03:42.266Z</time>
      </trkpt>
      <trkpt lat="51.171723" lon="9.053079">
        <ele>211.430302</ele>
        <time>2024-06-04T22:04:21.088Z</time>
      </trkpt>
      <trkpt lat="51.171833" lon="9.052927">
        <ele>211.677180</ele>
        <time>2024-06-04T22:04:37.660Z</time>
      </trkpt>
      <trkpt lat="51.171862" lon="9.052974">
        <ele>211.747311</ele>
        <time>2024-06-04T22:04:42.128Z</time>
      </trkpt>
      <trkpt lat="51.171944" lon="9.053103">
        <ele>211.942682</ele>
        <time>2024-06-04T22:04:54.698Z</time>
      </trkpt>
      <trkpt lat="51.172322" lon="9.053677">
        <ele>212.843578</ele>
        <time>2024-06-04T22:05:55.896Z</time>
      </trkpt>
      <trkpt lat="51.172439" lon="9.053768">
        <ele>213.618865</ele>
        <time>2024-06-04T22:06:10.957Z</time>
      </trkpt>
      <trkpt lat="51.172640" lon="9.053774">
        <ele>214.816220</ele>
        <time>2024-06-04T22:06:34.457Z</time>
      </trkpt>
      <trkpt lat="51.172945" lon="9.053712">
        <ele>216.647479</ele>
        <time>2024-06-04T22:07:10.714Z</time>
      </trkpt>
      <trkpt lat="51.173175" lon="9.053745">
        <ele>218.022878</ele>
        <time>2024-06-04T22:07:37.902Z</time>
      </trkpt>
      <trkpt lat="51.174668" lon="9.054724">
        <ele>228.180272</ele>
        <time>2024-06-04T22:10:57.852Z</time>
      </trkpt>
      <trkpt lat="51.174818" lon="9.054815">
        <ele>229.262613</ele>
        <time>2024-06-04T22:11:18.122Z</time>
      </trkpt>
      <trkpt lat="51.174955" lon="9.054898">
        <ele>230.250980</ele>
        <time>2024-06-04T22:11:36.572Z</time>
      </trkpt>
      <trkpt lat="51.175471" lon="9.055084">
        <ele>233.818770</ele>
        <time>2024-06-04T22:12:41.863Z</time>
      </trkpt>
      <trkpt lat="51.175789" lon="9.055183">
        <ele>235.838791</ele>
        <time>2024-06-04T22:13:21.127Z</time>
      </trkpt>
      <trkpt lat="51.175893" lon="9.055219">
        <ele>236.206925</ele>
        <time>2024-06-04T22:13:33.868Z</time>
      </trkpt>
      <trkpt lat="51.176271" lon="9.055334">
        <ele>237.538086</ele>
        <time>2024-06-04T22:14:19.044Z</time>
      </trkpt>
      <trkpt lat="51.176384" lon="9.055317">
        <ele>237.930714</ele>
        <time>2024-06-04T22:14:32.213Z</time>
      </trkpt>
      <trkpt lat="51.176431" lon="9.055372">
        <ele>238.132358</ele>
        <time>2024-06-04T22:14:38.733Z</time>
      </trkpt>
      <trkpt lat="51.177118" lon="9.055651">
        <ele>240.584663</ele>
        <time>2024-06-04T22:15:56.910Z</time>
      </trkpt>
      <trkpt lat="51.177833" lon="9.056369">
        <ele>242.468813</ele>
        <time>2024-06-04T22:17:25.101Z</time>
      </trkpt>
      <trkpt lat="51.177872" lon="9.056408">
        <ele>242.525997</ele>
        <time>2024-06-04T22:17:29.903Z</time>
      </trkpt>
      <trkpt lat="51.177922" lon="9.056456">
        <ele>242.598496</ele>
        <time>2024-06-04T22:17:36.088Z</time>
      </trkpt>
      <trkpt lat="51.178120" lon="9.056613">
        <ele>242.873193</ele>
        <time>2024-06-04T22:17:58.421Z</time>
      </trkpt>
      <trkpt lat="51.178503" lon="9.056917">
        <ele>243.404658</ele>
        <time>2024-06-04T22:18:42.585Z</time>
      </trkpt>
      <trkpt lat="51.178871" lon="9.057133">
        <ele>243.891805</ele>
        <time>2024-06-04T22:19:23.657Z</time>
      </trkpt>
      <trkpt lat="51.179003" lon="9.057231">
        <ele>244.072685</ele>
        <time>2024-06-04T22:19:39.382Z</time>
      </trkpt>
      <trkpt lat="51.179205" lon="9.057343">
        <ele>244.228518</ele>
        <time>2024-06-04T22:20:02.249Z</time>
      </trkpt>
      <trkpt lat="51.179413" lon="9.057434">
        <ele>244.360835</ele>
        <time>2024-06-04T22:20:24.954Z</time>
      </trkpt>
      <trkpt lat="51.179746" lon="9.057640">
        <ele>244.579950</ele>
        <time>2024-06-04T22:21:02.658Z</time>
      </trkpt>
      <trkpt lat="51.180005" lon="9.057631">
        <ele>244.738881</ele>
        <time>2024-06-04T22:21:29.820Z</time>
      </trkpt>
      <trkpt lat="51.180243" lon="9.057544">
        <ele>244.888676</ele>
        <time>2024-06-04T22:21:55.952Z</time>
      </trkpt>
      <trkpt lat="51.180476" lon="9.057347">
        <ele>245.050455</ele>
        <time>2024-06-04T22:22:23.337Z</time>
      </trkpt>
      <trkpt lat="51.180573" lon="9.057312">
        <ele>245.111466</ele>
        <time>2024-06-04T22:22:33.403Z</time>
      </trkpt>
      <trkpt lat="51.180656" lon="9.057428">
        <ele>245.179163</ele>
        <time>2024-06-04T22:22:44.935Z</time>
      </trkpt>
      <trkpt lat="51.180921" lon="9.057584">
        <ele>244.275654</ele>
        <time>2024-06-04T22:23:14.918Z</time>
      </trkpt>
      <trkpt lat="51.181196" lon="9.057716">
        <ele>242.965693</ele>
        <time>2024-06-04T22:23:45.508Z</time>
      </trkpt>
      <trkpt lat="51.181258" lon="9.057859">
        <ele>242.468524</ele>
        <time>2024-06-04T22:23:57.934Z</time>
      </trkpt>
      <trkpt lat="51.181431" lon="9.057798">
        <ele>241.660342</ele>
        <time>2024-06-04T22:24:16.782Z</time>
      </trkpt>
      <trkpt lat="51.181742" lon="9.057707">
        <ele>240.218057</ele>
        <time>2024-06-04T22:24:51.934Z</time>
      </trkpt>
      <trkpt lat="51.181826" lon="9.057688">
        <ele>239.831060</ele>
        <time>2024-06-04T22:25:01.183Z</time>
      </trkpt>
      <trkpt lat="51.181830" lon="9.057687">
        <ele>239.812592</ele>
        <time>2024-06-04T22:25:01.665Z</time>
      </trkpt>
      <trkpt lat="51.182134" lon="9.057626">
        <ele>238.414976</ele>
        <time>2024-06-04T22:25:36.057Z</time>
      </trkpt>
      <trkpt lat="51.182357" lon="9.057626">
        <ele>237.397767</ele>
        <time>2024-06-04T22:26:01.802Z</time>
      </trkpt>
      <trkpt lat="51.182368" lon="9.057627">
        <ele>237.347509</ele>
        <time>2024-06-04T22:26:03.017Z</time>
      </trkpt>
      <trkpt lat="51.182457" lon="9.057635">
        <ele>236.958916</ele>
        <time>2024-06-04T22:26:12.513Z</time>
      </trkpt>
      <trkpt lat="51.182876" lon="9.057750">
        <ele>235.459548</ele>
        <time>2024-06-04T22:27:00.647Z</time>
      </trkpt>
      <trkpt lat="51.183025" lon="9.057834">
        <ele>234.902235</ele>
        <time>2024-06-04T22:27:18.922Z</time>
      </trkpt>
      <trkpt lat="51.183102" lon="9.057878">
        <ele>234.613790</ele>
        <time>2024-06-04T22:27:28.123Z</time>
      </trkpt>
      <trkpt lat="51.183398" lon="9.058107">
        <ele>233.453636</ele>
        <time>2024-06-04T22:28:06.162Z</time>
      </trkpt>
      <trkpt lat="51.183585" lon="9.058297">
        <ele>232.671764</ele>
        <time>2024-06-04T22:28:30.499Z</time>
      </trkpt>
      <trkpt lat="51.183847" lon="9.058632">
        <ele>231.487644</ele>
        <time>2024-06-04T22:29:04.135Z</time>
      </trkpt>
      <trkpt lat="51.183927" lon="9.058763">
        <ele>231.083346</ele>
        <time>2024-06-04T22:29:17.033Z</time>
      </trkpt>
      <trkpt lat="51.184083" lon="9.059018">
        <ele>231.234234</ele>
        <time>2024-06-04T22:29:41.879Z</time>
      </trkpt>
      <trkpt lat="51.184231" lon="9.059328">
        <ele>232.492015</ele>
        <time>2024-06-04T22:30:11.857Z</time>
      </trkpt>
      <trkpt lat="51.184279" lon="9.059443">
        <ele>232.937969</ele>
        <time>2024-06-04T22:30:21.629Z</time>
      </trkpt>
      <trkpt lat="51.184286" lon="9.059459">
        <ele>233.000948</ele>
        <time>2024-06-04T22:30:23.110Z</time>
      </trkpt>
      <trkpt lat="51.184399" lon="9.059765">
        <ele>234.147294</ele>
        <time>2024-06-04T22:30:49.882Z</time>
      </trkpt>
      <trkpt lat="51.184489" lon="9.060059">
        <ele>235.203366</ele>
        <time>2024-06-04T22:31:14.224Z</time>
      </trkpt>
      <trkpt lat="51.184608" lon="9.060647">
        <ele>237.197735</ele>
        <time>2024-06-04T22:32:00.485Z</time>
      </trkpt>
      <trkpt lat="51.184652" lon="9.060599">
        <ele>237.472215</ele>
        <time>2024-06-04T22:32:06.597Z</time>
      </trkpt>
      <trkpt lat="51.184848" lon="9.060524">
        <ele>238.510122</ele>
        <time>2024-06-04T22:32:30.530Z</time>
      </trkpt>
      <trkpt lat="51.185243" lon="9.060473">
        <ele>240.408667</ele>
        <time>2024-06-04T22:33:18.902Z</time>
      </trkpt>
      <trkpt lat="51.185327" lon="9.060339">
        <ele>240.878234</ele>
        <time>2024-06-04T22:33:33.302Z</time>
      </trkpt>
      <trkpt lat="51.185436" lon="9.060296">
        <ele>241.322086</ele>
        <time>2024-06-04T22:33:47.910Z</time>
      </trkpt>
      <trkpt lat="51.185461" lon="9.060253">
        <ele>241.467405</ele>
        <time>2024-06-04T22:33:52.786Z</time>
      </trkpt>
      <trkpt lat="51.185636" lon="9.060176">
        <ele>242.185003</ele>
        <time>2024-06-04T22:34:15.535Z</time>
      </trkpt>
      <trkpt lat="51.185713" lon="9.059862">
        <ele>243.020430</ele>
        <time>2024-06-04T22:34:41.440Z</time>
      </trkpt>
      <trkpt lat="51.185829" lon="9.059920">
        <ele>243.500967</ele>
        <time>2024-06-04T22:34:55.265Z</time>
      </trkpt>
      <trkpt lat="51.186016" lon="9.059691">
        <ele>244.432827</ele>
        <time>2024-06-04T22:35:21.104Z</time>
      </trkpt>
      <trkpt lat="51.186056" lon="9.059584">
        <ele>244.741514</ele>
        <time>2024-06-04T22:35:29.225Z</time>
      </trkpt>
      <trkpt lat="51.186090" lon="9.059570">
        <ele>244.880319</ele>
        <time>2024-06-04T22:35:32.707Z</time>
      </trkpt>
      <trkpt lat="51.186126" lon="9.059556">
        <ele>245.026793</ele>
        <time>2024-06-04T22:35:36.468Z</time>
      </trkpt>
      <trkpt lat="51.186193" lon="9.059540">
        <ele>245.294593</ele>
        <time>2024-06-04T22:35:44.132Z</time>
      </trkpt>
      <trkpt lat="51.186465" lon="9.059403">
        <ele>246.422112</ele>
        <time>2024-06-04T22:36:14.333Z</time>
      </trkpt>
      <trkpt lat="51.186684" lon="9.059320">
        <ele>247.049111</ele>
        <time>2024-06-04T22:36:37.788Z</time>
      </trkpt>
      <trkpt lat="51.186729" lon="9.059130">
        <ele>247.049111</ele>
        <time>2024-06-04T22:36:50.798Z</time>
      </trkpt>
      <trkpt lat="51.186870" lon="9.058513">
        <ele>247.049111</ele>
        <time>2024-06-04T22:37:32.533Z</time>
      </trkpt>
      <trkpt lat="51.187043" lon="9.058226">
        <ele>247.049111</ele>
        <time>2024-06-04T22:37:58.071Z</time>
      </trkpt>
      <trkpt lat="51.187090" lon="9.058313">
        <ele>247.049111</ele>
        <time>2024-06-04T22:38:05.394Z</time>
      </trkpt>
      <trkpt lat="51.187292" lon="9.058610">
        <ele>247.049111</ele>
        <time>2024-06-04T22:38:34.129Z</time>
      </trkpt>
      <trkpt lat="51.187359" lon="9.058487">
        <ele>247.049111</ele>
        <time>2024-06-04T22:38:44.512Z</time>
      </trkpt>
      <trkpt lat="51.187272" lon="9.058411">
        <ele>247.049111</ele>
        <time>2024-06-04T22:38:54.979Z</time>
      </trkpt>
      <trkpt lat="51.187687" lon="9.057908">
        <ele>247.049111</ele>
        <time>2024-06-04T22:39:47.871Z</time>
      </trkpt>
      <trkpt lat="51.187703" lon="9.057712">
        <ele>247.049111</ele>
        <time>2024-06-04T22:40:00.360Z</time>
      </trkpt>
    </trkseg>
  </trk>
</gpx>